createdAt,value
2019-01-13T00:02:13.621Z,0.79
2019-01-13T00:04:44.007Z,0.77
2019-01-13T00:07:14.684Z,0.78
2019-01-13T00:09:45.079Z,0.81
2019-01-13T00:12:15.677Z,0.80
2019-01-13T00:14:45.928Z,0.83
2019-01-13T00:17:16.230Z,0.82
2019-01-13T00:19:46.529Z,0.78
2019-01-13T00:22:17.035Z,0.80
2019-01-13T00:24:47.640Z,0.73
2019-01-13T00:27:17.945Z,0.70
2019-01-13T00:29:48.231Z,0.69
2019-01-13T00:32:18.699Z,0.66
2019-01-13T00:34:51.313Z,0.66
2019-01-13T00:37:21.915Z,0.64
2019-01-13T00:39:52.283Z,0.66
2019-01-13T00:42:22.648Z,0.66
2019-01-13T00:44:52.969Z,0.60
2019-01-13T00:47:23.197Z,0.51
2019-01-13T00:49:53.584Z,0.43
2019-01-13T00:52:24.063Z,0.40
2019-01-13T00:54:54.453Z,0.35
2019-01-13T00:57:24.745Z,0.38
2019-01-13T00:59:55.047Z,0.45
2019-01-13T01:02:25.477Z,0.44
2019-01-13T01:04:55.862Z,0.45
2019-01-13T01:07:26.419Z,0.46
2019-01-13T01:09:56.764Z,0.45
2019-01-13T01:12:27.485Z,0.43
2019-01-13T01:14:58.537Z,0.45
2019-01-13T01:17:29.027Z,0.41
2019-01-13T01:19:59.477Z,0.41
2019-01-13T01:22:29.978Z,0.42
2019-01-13T01:25:00.614Z,0.45
2019-01-13T01:27:30.999Z,0.45
2019-01-13T01:30:01.205Z,0.45
2019-01-13T01:32:31.567Z,0.45
2019-01-13T01:35:02.393Z,0.50
2019-01-13T01:37:32.734Z,0.49
2019-01-13T01:40:03.101Z,0.44
2019-01-13T01:42:33.545Z,0.36
2019-01-13T01:45:04.487Z,0.37
2019-01-13T01:47:34.835Z,0.40
2019-01-13T01:50:06.110Z,0.43
2019-01-13T01:52:36.475Z,0.43
2019-01-13T01:55:10.114Z,0.39
2019-01-13T01:57:40.731Z,0.42
2019-01-13T02:00:19.152Z,0.40
2019-01-13T02:02:49.633Z,0.43
2019-01-13T02:05:20.165Z,0.42
2019-01-13T02:07:50.621Z,0.44
2019-01-13T02:10:24.089Z,0.44
2019-01-13T02:12:54.458Z,0.48
2019-01-13T02:15:28.945Z,0.50
2019-01-13T02:17:59.313Z,0.48
2019-01-13T02:20:29.912Z,0.46
2019-01-13T02:23:00.614Z,0.47
2019-01-13T02:25:31.267Z,0.37
2019-01-13T02:28:01.630Z,0.34
2019-01-13T02:30:32.348Z,0.39
2019-01-13T02:33:02.809Z,0.45
2019-01-13T02:35:33.220Z,0.46
2019-01-13T02:38:03.991Z,0.45
2019-01-13T02:40:34.232Z,0.49
2019-01-13T02:43:04.579Z,0.53
2019-01-13T02:45:34.858Z,0.54
2019-01-13T02:48:05.298Z,0.61
2019-01-13T02:50:35.551Z,0.59
2019-01-13T02:53:05.969Z,0.60
2019-01-13T02:55:36.735Z,0.62
2019-01-13T02:58:07.192Z,0.63
2019-01-13T03:00:37.545Z,0.63
2019-01-13T03:03:07.964Z,0.66
2019-01-13T03:05:38.326Z,0.68
2019-01-13T03:08:08.988Z,0.72
2019-01-13T03:10:39.243Z,0.77
2019-01-13T03:13:09.347Z,0.80
2019-01-13T03:15:39.525Z,0.84
2019-01-13T03:18:10.172Z,0.86
2019-01-13T03:20:40.388Z,0.86
2019-01-13T03:23:10.776Z,0.86
2019-01-13T03:25:41.025Z,0.87
2019-01-13T03:28:11.203Z,0.86
2019-01-13T03:30:41.794Z,0.88
2019-01-13T03:33:12.052Z,0.85
2019-01-13T03:35:42.503Z,0.81
2019-01-13T03:38:12.743Z,0.82
2019-01-13T03:40:43.006Z,0.83
2019-01-13T03:43:13.730Z,0.85
2019-01-13T03:45:43.914Z,0.86
2019-01-13T03:48:14.492Z,0.86
2019-01-13T03:50:44.812Z,0.89
2019-01-13T03:53:15.409Z,0.92
2019-01-13T03:55:45.943Z,0.91
2019-01-13T03:58:16.199Z,0.90
2019-01-13T04:00:46.359Z,0.89
2019-01-13T04:03:16.527Z,0.91
2019-01-13T04:05:46.785Z,0.91
2019-01-13T04:08:17.121Z,0.92
2019-01-13T04:10:47.365Z,0.95
2019-01-13T04:13:17.531Z,0.96
2019-01-13T04:16:14.187Z,0.95
2019-01-13T04:18:44.383Z,0.95
2019-01-13T04:21:14.663Z,0.93
2019-01-13T04:23:44.821Z,0.89
2019-01-13T04:26:15.007Z,0.91
2019-01-13T04:28:45.191Z,0.91
2019-01-13T04:31:15.353Z,0.89
2019-01-13T04:33:45.548Z,0.87
2019-01-13T04:36:15.871Z,0.85
2019-01-13T04:38:46.213Z,0.86
2019-01-13T04:41:16.735Z,0.88
2019-01-13T04:43:47.236Z,0.89
2019-01-13T04:46:17.327Z,0.87
2019-01-13T04:48:47.433Z,0.86
2019-01-13T04:51:18.057Z,0.87
2019-01-13T04:53:48.180Z,0.88
2019-01-13T04:56:18.733Z,0.90
2019-01-13T04:58:48.854Z,0.87
2019-01-13T05:01:19.445Z,0.90
2019-01-13T05:03:49.623Z,0.97
2019-01-13T05:06:19.894Z,0.97
2019-01-13T05:08:50.101Z,0.97
2019-01-13T05:11:20.779Z,0.98
2019-01-13T05:13:50.910Z,0.99
2019-01-13T05:16:21.015Z,0.96
2019-01-13T05:18:51.203Z,0.97
2019-01-13T05:21:21.819Z,0.95
2019-01-13T05:23:51.928Z,0.94
2019-01-13T05:26:22.180Z,0.93
2019-01-13T05:28:52.301Z,0.94
2019-01-13T05:31:22.415Z,0.95
2019-01-13T05:33:52.607Z,0.97
2019-01-13T05:36:22.770Z,0.99
2019-01-13T05:38:53.127Z,1.02
2019-01-13T05:41:23.817Z,1.03
2019-01-13T05:43:53.907Z,0.98
2019-01-13T05:46:24.265Z,1.01
2019-01-13T05:48:54.447Z,0.99
2019-01-13T05:51:24.887Z,0.99
2019-01-13T05:53:55.057Z,0.99
2019-01-13T05:56:25.236Z,1.00
2019-01-13T05:58:55.599Z,1.01
2019-01-13T06:01:26.155Z,1.06
2019-01-13T06:03:56.350Z,1.08
2019-01-13T06:06:26.610Z,1.11
2019-01-13T06:08:56.801Z,1.06
2019-01-13T06:11:27.181Z,1.07
2019-01-13T06:13:57.477Z,1.07
2019-01-13T06:16:27.671Z,1.09
2019-01-13T06:18:58.190Z,1.09
2019-01-13T06:21:28.451Z,1.11
2019-01-13T06:23:58.637Z,1.11
2019-01-13T06:26:28.890Z,1.11
2019-01-13T06:28:59.068Z,1.13
2019-01-13T06:31:29.168Z,1.15
2019-01-13T06:34:05.724Z,1.17
2019-01-13T06:36:36.073Z,1.16
2019-01-13T06:39:09.032Z,1.16
2019-01-13T06:41:39.243Z,1.20
2019-01-13T06:44:09.420Z,1.21
2019-01-13T06:46:39.688Z,1.28
2019-01-13T06:49:09.944Z,1.25
2019-01-13T06:51:40.413Z,1.28
2019-01-13T06:54:11.058Z,1.25
2019-01-13T06:56:41.273Z,1.30
2019-01-13T06:59:11.777Z,1.27
2019-01-13T07:01:42.026Z,1.27
2019-01-13T07:04:12.293Z,1.28
2019-01-13T07:06:42.479Z,1.29
2019-01-13T07:09:12.598Z,1.32
2019-01-13T07:11:42.861Z,1.31
2019-01-13T07:14:13.034Z,1.31
2019-01-13T07:16:43.157Z,1.32
2019-01-13T07:19:13.527Z,1.34
2019-01-13T07:21:43.803Z,1.34
2019-01-13T07:24:13.898Z,1.34
2019-01-13T07:26:44.146Z,1.33
2019-01-13T07:29:14.567Z,1.34
2019-01-13T07:31:44.819Z,1.34
2019-01-13T07:34:15.074Z,1.34
2019-01-13T07:36:45.700Z,1.32
2019-01-13T07:39:15.812Z,1.31
2019-01-13T07:41:46.017Z,1.35
2019-01-13T07:44:17.536Z,1.34
2019-01-13T07:46:48.170Z,1.35
2019-01-13T07:49:18.357Z,1.35
2019-01-13T07:51:48.695Z,1.37
2019-01-13T07:54:18.863Z,1.38
2019-01-13T07:56:49.107Z,1.46
2019-01-13T07:59:19.208Z,1.51
2019-01-13T08:01:49.503Z,1.50
2019-01-13T08:04:20.157Z,1.57
2019-01-13T08:06:50.381Z,1.63
2019-01-13T08:09:20.530Z,1.69
2019-01-13T08:11:51.310Z,1.69
2019-01-13T08:14:21.660Z,1.66
2019-01-13T08:16:52.216Z,1.69
2019-01-13T08:19:22.662Z,1.74
2019-01-13T08:21:52.967Z,1.75
2019-01-13T08:24:23.308Z,1.79
2019-01-13T08:26:53.865Z,1.81
2019-01-13T08:29:24.000Z,1.77
2019-01-13T08:31:54.243Z,1.75
2019-01-13T08:34:24.431Z,1.74
2019-01-13T08:36:55.023Z,1.79
2019-01-13T08:39:25.479Z,1.79
2019-01-13T08:41:55.583Z,1.81
2019-01-13T08:44:25.691Z,1.85
2019-01-13T08:46:55.783Z,1.86
2019-01-13T08:49:26.146Z,1.88
2019-01-13T08:51:56.415Z,1.86
2019-01-13T08:54:26.868Z,1.89
2019-01-13T08:56:57.264Z,1.90
2019-01-13T08:59:27.745Z,1.88
2019-01-13T09:01:58.156Z,1.87
2019-01-13T09:04:28.799Z,1.86
2019-01-13T09:06:59.046Z,1.87
2019-01-13T09:09:30.242Z,1.88
2019-01-13T09:12:00.881Z,1.88
2019-01-13T09:14:31.051Z,1.88
2019-01-13T09:17:01.419Z,1.94
2019-01-13T09:19:31.602Z,1.95
2019-01-13T09:22:01.968Z,2.00
2019-01-13T09:24:32.210Z,1.97
2019-01-13T09:27:02.711Z,2.01
2019-01-13T09:29:33.263Z,2.01
2019-01-13T09:32:03.433Z,2.07
2019-01-13T09:34:33.605Z,2.09
2019-01-13T09:37:03.933Z,2.06
2019-01-13T09:39:34.358Z,2.06
2019-01-13T09:42:04.779Z,2.08
2019-01-13T09:44:35.046Z,2.11
2019-01-13T09:47:05.310Z,2.15
2019-01-13T09:49:35.852Z,2.13
2019-01-13T09:52:06.191Z,2.13
2019-01-13T09:54:36.414Z,2.15
2019-01-13T09:57:06.667Z,2.17
2019-01-13T09:59:37.073Z,2.14
2019-01-13T10:02:07.929Z,2.15
2019-01-13T10:04:38.558Z,2.19
2019-01-13T10:07:08.818Z,2.26
2019-01-13T10:09:39.092Z,2.25
2019-01-13T10:12:09.668Z,2.25
2019-01-13T10:14:40.114Z,2.27
2019-01-13T10:17:10.634Z,2.28
2019-01-13T10:19:40.830Z,2.29
2019-01-13T10:22:11.403Z,2.25
2019-01-13T10:24:41.701Z,2.29
2019-01-13T10:27:11.922Z,2.27
2019-01-13T10:29:42.182Z,2.25
2019-01-13T10:32:12.440Z,2.26
2019-01-13T10:34:42.653Z,2.27
2019-01-13T10:37:12.978Z,2.19
2019-01-13T10:39:43.093Z,2.20
2019-01-13T10:42:14.175Z,2.18
2019-01-13T10:44:44.671Z,2.22
2019-01-13T10:47:14.760Z,2.20
2019-01-13T10:49:44.860Z,2.22
2019-01-13T10:52:15.474Z,2.25
2019-01-13T10:54:45.658Z,2.20
2019-01-13T10:57:16.160Z,2.17
2019-01-13T10:59:46.420Z,2.18
2019-01-13T11:02:16.732Z,2.17
2019-01-13T11:04:47.066Z,2.15
2019-01-13T11:07:17.196Z,2.16
2019-01-13T11:09:47.799Z,2.13
2019-01-13T11:12:18.044Z,2.10
2019-01-13T11:14:48.188Z,2.07
2019-01-13T11:17:18.967Z,2.10
2019-01-13T11:19:49.243Z,2.02
2019-01-13T11:22:19.854Z,2.03
2019-01-13T11:24:50.131Z,1.99
2019-01-13T11:27:20.353Z,1.95
2019-01-13T11:29:50.541Z,1.92
2019-01-13T11:32:21.326Z,1.92
2019-01-13T11:34:51.494Z,1.89
2019-01-13T11:37:21.814Z,1.86
2019-01-13T11:39:51.963Z,1.88
2019-01-13T11:42:22.766Z,1.88
2019-01-13T11:44:53.069Z,1.86
2019-01-13T11:47:23.698Z,1.89
2019-01-13T11:49:53.955Z,1.88
2019-01-13T11:52:24.433Z,1.85
2019-01-13T11:54:54.671Z,1.85
2019-01-13T11:57:25.270Z,1.86
2019-01-13T11:59:55.505Z,1.79
2019-01-13T12:02:32.414Z,1.79
2019-01-13T12:04:57.653Z,1.74
2019-01-13T12:07:28.950Z,1.71
2019-01-13T12:09:59.259Z,1.67
2019-01-13T12:12:30.092Z,1.64
2019-01-13T12:15:00.559Z,1.68
2019-01-13T12:17:30.848Z,1.67
2019-01-13T12:20:01.122Z,1.63
2019-01-13T12:22:31.371Z,1.63
2019-01-13T12:25:01.788Z,1.58
2019-01-13T12:27:32.059Z,1.53
2019-01-13T12:30:02.299Z,1.50
2019-01-13T12:32:32.827Z,1.47
2019-01-13T12:35:04.644Z,1.41
2019-01-13T12:37:34.918Z,1.39
2019-01-13T12:40:07.347Z,1.34
2019-01-13T12:42:37.877Z,1.32
2019-01-13T12:45:09.265Z,1.28
2019-01-13T12:47:40.884Z,1.25
2019-01-13T12:50:18.988Z,1.18
2019-01-13T12:52:49.554Z,1.10
2019-01-13T12:55:19.962Z,1.00
2019-01-13T12:57:50.615Z,0.96
2019-01-13T13:00:21.684Z,0.93
2019-01-13T13:02:52.313Z,0.86
2019-01-13T13:05:22.783Z,0.76
2019-01-13T13:07:53.041Z,0.70
2019-01-13T13:10:44.685Z,0.67
2019-01-13T13:13:15.678Z,0.62
2019-01-13T13:15:46.387Z,0.64
2019-01-13T13:18:16.669Z,0.59
2019-01-13T13:20:47.009Z,0.57
2019-01-13T13:23:17.375Z,0.54
2019-01-13T13:25:48.060Z,0.58
2019-01-13T13:28:19.189Z,0.59
2019-01-13T13:30:49.589Z,0.60
2019-01-13T13:33:19.923Z,0.62
2019-01-13T13:35:50.201Z,0.65
2019-01-13T13:38:23.558Z,0.68
2019-01-13T13:40:53.731Z,0.71
2019-01-13T13:43:32.562Z,0.76
2019-01-13T13:46:04.729Z,0.83
2019-01-13T13:48:34.961Z,0.87
2019-01-13T13:51:05.717Z,0.90
2019-01-13T13:53:35.973Z,0.94
2019-01-13T13:56:06.660Z,0.98
2019-01-13T13:58:36.919Z,1.03
2019-01-13T14:01:07.794Z,1.02
2019-01-13T14:03:38.153Z,1.07
2019-01-13T14:06:08.488Z,1.10
2019-01-13T14:08:38.694Z,1.18
2019-01-13T14:11:09.038Z,1.24
2019-01-13T14:13:39.321Z,1.26
2019-01-13T14:16:09.581Z,1.32
2019-01-13T14:18:40.156Z,1.41
2019-01-13T14:21:10.417Z,1.40
2019-01-13T14:23:40.802Z,1.39
2019-01-13T14:26:11.253Z,1.45
2019-01-13T14:28:41.644Z,1.42
2019-01-13T14:31:11.905Z,1.43
2019-01-13T14:33:42.946Z,1.48
2019-01-13T14:36:13.511Z,1.52
2019-01-13T14:38:43.844Z,1.60
2019-01-13T14:41:14.196Z,1.62
2019-01-13T14:43:44.711Z,1.62
2019-01-13T14:46:15.320Z,1.63
2019-01-13T14:48:45.589Z,1.64
2019-01-13T14:51:16.037Z,1.65
2019-01-13T14:53:46.573Z,1.65
2019-01-13T14:56:16.796Z,1.72
2019-01-13T14:58:47.208Z,1.76
2019-01-13T15:01:17.313Z,1.82
2019-01-13T15:03:47.821Z,1.81
2019-01-13T15:06:18.102Z,1.82
2019-01-13T15:08:48.282Z,1.78
2019-01-13T15:11:33.690Z,1.85
2019-01-13T15:14:15.987Z,1.81
2019-01-13T15:16:47.898Z,1.83
2019-01-13T15:19:22.332Z,1.84
2019-01-13T15:22:10.371Z,1.88
2019-01-13T15:24:41.123Z,1.96
2019-01-13T15:27:12.992Z,1.98
2019-01-13T15:29:43.641Z,1.86
2019-01-13T15:32:17.590Z,1.87
2019-01-13T15:34:51.532Z,1.91
2019-01-13T15:37:27.667Z,1.93
2019-01-13T15:40:05.471Z,2.01
2019-01-13T15:42:41.859Z,1.97
2019-01-13T15:45:21.579Z,1.99
2019-01-13T15:47:52.476Z,2.07
2019-01-13T15:50:30.350Z,2.02
2019-01-13T15:53:04.399Z,2.05
2019-01-13T15:55:45.598Z,2.03
2019-01-13T15:58:43.893Z,2.13
2019-01-13T16:01:05.591Z,2.07
2019-01-13T16:03:36.169Z,2.11
2019-01-13T16:06:06.528Z,2.05
2019-01-13T16:08:36.705Z,2.06
2019-01-13T16:11:07.115Z,2.11
2019-01-13T16:13:37.360Z,2.09
2019-01-13T16:16:07.629Z,2.12
2019-01-13T16:18:37.966Z,2.13
2019-01-13T16:21:08.376Z,2.13
2019-01-13T16:23:40.211Z,2.15
2019-01-13T16:26:10.331Z,2.18
2019-01-13T16:28:40.520Z,2.21
2019-01-13T16:31:13.753Z,2.22
2019-01-13T16:33:44.295Z,2.27
2019-01-13T16:36:14.531Z,2.28
2019-01-13T16:38:44.961Z,2.31
2019-01-13T16:41:15.159Z,2.34
2019-01-13T16:43:45.887Z,2.37
2019-01-13T16:46:16.062Z,2.42
2019-01-13T16:48:46.257Z,2.45
2019-01-13T16:51:16.523Z,2.46
2019-01-13T16:53:47.118Z,2.51
2019-01-13T16:56:17.430Z,2.59
2019-01-13T16:58:47.677Z,2.60
2019-01-13T17:01:17.948Z,2.67
2019-01-13T17:03:51.116Z,2.67
2019-01-13T17:06:21.328Z,2.74
2019-01-13T17:08:51.811Z,2.75
2019-01-13T17:11:22.022Z,2.69
2019-01-13T17:14:08.361Z,2.80
2019-01-13T17:16:44.054Z,2.76
2019-01-13T17:19:17.232Z,2.75
2019-01-13T17:21:47.470Z,2.84
2019-01-13T17:24:17.666Z,2.79
2019-01-13T17:26:47.878Z,2.83
2019-01-13T17:29:18.541Z,2.88
2019-01-13T17:31:48.694Z,2.92
2019-01-13T17:34:19.022Z,2.93
2019-01-13T17:36:49.202Z,2.89
2019-01-13T17:39:19.446Z,2.94
2019-01-13T17:41:49.714Z,2.94
2019-01-13T17:44:20.273Z,2.91
2019-01-13T17:46:50.526Z,2.93
2019-01-13T17:49:20.864Z,2.93
2019-01-13T17:51:51.423Z,2.92
2019-01-13T17:54:26.446Z,3.02
2019-01-13T17:56:56.568Z,3.01
2019-01-13T17:59:29.662Z,3.03
2019-01-13T18:02:04.630Z,3.04
2019-01-13T18:04:34.955Z,3.12
2019-01-13T18:07:07.191Z,3.10
2019-01-13T18:09:37.402Z,3.05
2019-01-13T18:12:11.530Z,3.11
2019-01-13T18:14:41.745Z,3.10
2019-01-13T18:17:11.994Z,3.15
2019-01-13T18:19:42.213Z,3.12
2019-01-13T18:22:12.793Z,3.13
2019-01-13T18:24:46.093Z,3.12
2019-01-13T18:27:18.557Z,3.11
2019-01-13T18:29:51.149Z,3.19
2019-01-13T18:32:21.482Z,3.18
2019-01-13T18:34:51.931Z,3.18
2019-01-13T18:37:22.141Z,3.26
2019-01-13T18:39:53.307Z,3.24
2019-01-13T18:42:23.406Z,3.26
2019-01-13T18:44:53.519Z,3.23
2019-01-13T18:47:23.684Z,3.30
2019-01-13T18:50:02.686Z,3.32
2019-01-13T18:52:34.119Z,3.32
2019-01-13T18:55:08.442Z,3.32
2019-01-13T18:57:38.613Z,3.39
2019-01-13T19:00:13.857Z,3.34
2019-01-13T19:02:44.127Z,3.38
2019-01-13T19:05:15.996Z,3.40
2019-01-13T19:07:46.251Z,3.51
2019-01-13T19:10:51.798Z,3.46
2019-01-13T19:13:59.097Z,3.44
2019-01-13T19:16:34.349Z,3.47
2019-01-13T19:19:04.725Z,3.44
2019-01-13T19:22:01.044Z,3.53
2019-01-13T19:24:31.217Z,3.48
2019-01-13T19:27:01.530Z,3.54
2019-01-13T19:29:32.536Z,3.46
2019-01-13T19:32:02.806Z,3.56
2019-01-13T19:34:33.079Z,3.57
2019-01-13T19:37:03.339Z,3.58
2019-01-13T19:39:34.025Z,3.70
2019-01-13T19:42:04.546Z,3.71
2019-01-13T19:44:35.058Z,3.63
2019-01-13T19:47:05.473Z,3.61
2019-01-13T19:49:35.667Z,3.71
2019-01-13T19:52:06.137Z,3.69
2019-01-13T19:54:36.394Z,3.63
2019-01-13T19:57:06.840Z,3.67
2019-01-13T19:59:37.115Z,3.69
2019-01-13T20:02:07.652Z,3.74
2019-01-13T20:04:37.873Z,3.75
2019-01-13T20:07:08.593Z,3.81
2019-01-13T20:09:39.210Z,3.80
2019-01-13T20:12:09.567Z,3.79
2019-01-13T20:14:39.741Z,3.80
2019-01-13T20:17:10.330Z,3.80
2019-01-13T20:19:40.580Z,3.81
2019-01-13T20:22:11.008Z,3.83
2019-01-13T20:24:41.266Z,3.82
2019-01-13T20:27:11.362Z,3.84
2019-01-13T20:29:41.798Z,3.82
2019-01-13T20:32:12.335Z,3.81
2019-01-13T20:34:42.602Z,3.87
2019-01-13T20:37:13.131Z,3.86
2019-01-13T20:39:43.374Z,3.85
2019-01-13T20:42:13.576Z,3.79
2019-01-13T20:44:44.143Z,3.73
2019-01-13T20:47:14.593Z,3.69
2019-01-13T20:49:47.106Z,3.73
2019-01-13T20:52:17.840Z,3.67
2019-01-13T20:54:48.251Z,3.66
2019-01-13T20:57:18.605Z,3.63
2019-01-13T20:59:49.339Z,3.59
2019-01-13T21:02:19.974Z,3.57
2019-01-13T21:04:50.141Z,3.60
2019-01-13T21:07:20.377Z,3.67
2019-01-13T21:09:50.506Z,3.71
2019-01-13T21:12:20.839Z,3.72
2019-01-13T21:14:51.231Z,3.71
2019-01-13T21:17:21.604Z,3.71
2019-01-13T21:19:52.602Z,3.67
2019-01-13T21:22:22.917Z,3.71
2019-01-13T21:24:53.197Z,3.78
2019-01-13T21:27:23.726Z,3.79
2019-01-13T21:30:01.217Z,3.78
2019-01-13T21:32:26.099Z,3.78
2019-01-13T21:34:56.859Z,3.76
2019-01-13T21:37:27.176Z,3.70
2019-01-13T21:39:57.523Z,3.86
2019-01-13T21:42:27.876Z,3.80
2019-01-13T21:44:58.017Z,3.77
2019-01-13T21:47:28.378Z,3.72
2019-01-13T21:49:58.780Z,3.67
2019-01-13T21:52:29.537Z,3.59
2019-01-13T21:55:07.593Z,3.62
2019-01-13T21:57:37.974Z,3.52
2019-01-13T22:00:13.947Z,3.61
2019-01-13T22:02:44.490Z,3.83
2019-01-13T22:05:15.024Z,3.83
2019-01-13T22:07:45.467Z,3.90
2019-01-13T22:10:18.781Z,3.99
2019-01-13T22:12:49.079Z,3.95
2019-01-13T22:15:21.328Z,3.95
2019-01-13T22:17:51.747Z,4.04
2019-01-13T22:20:24.024Z,3.97
2019-01-13T22:22:55.066Z,3.93
2019-01-13T22:25:25.396Z,3.90
2019-01-13T22:27:55.896Z,3.85
2019-01-13T22:30:26.468Z,3.88
2019-01-13T22:32:56.842Z,3.87
2019-01-13T22:35:27.207Z,3.96
2019-01-13T22:37:57.402Z,4.19
2019-01-13T22:40:27.825Z,4.22
2019-01-13T22:42:58.184Z,4.43
2019-01-13T22:45:28.606Z,4.45
2019-01-13T22:47:58.817Z,4.51
2019-01-13T22:50:29.153Z,4.45
2019-01-13T22:52:59.361Z,4.68
2019-01-13T22:55:29.693Z,4.72
2019-01-13T22:58:00.009Z,4.75
2019-01-13T23:01:14.593Z,4.78
2019-01-13T23:03:44.895Z,4.76
2019-01-13T23:06:15.206Z,4.68
2019-01-13T23:08:47.977Z,4.64
2019-01-13T23:11:18.675Z,4.64
2019-01-13T23:13:49.207Z,4.63
2019-01-13T23:16:19.837Z,4.60
2019-01-13T23:18:50.105Z,4.52
2019-01-13T23:21:20.531Z,4.52
2019-01-13T23:23:50.875Z,4.50
2019-01-13T23:26:21.089Z,4.52
2019-01-13T23:28:51.391Z,4.55
2019-01-13T23:31:22.554Z,4.56
2019-01-13T23:33:52.880Z,4.58
2019-01-13T23:36:23.245Z,4.66
2019-01-13T23:38:53.923Z,4.64
2019-01-13T23:41:24.300Z,4.58
2019-01-13T23:43:54.806Z,4.51
2019-01-13T23:46:25.625Z,4.46
2019-01-13T23:48:57.630Z,4.39
2019-01-13T23:51:27.993Z,4.26
2019-01-13T23:53:58.357Z,4.06
2019-01-13T23:56:29.014Z,3.98
2019-01-13T23:58:59.348Z,3.94
